createdAt,value
2023-03-31T00:02:49.427Z,3.25
2023-03-31T00:08:09.912Z,2.47
2023-03-31T00:13:27.159Z,3.97
2023-03-31T00:18:37.212Z,2.08
2023-03-31T00:23:45.820Z,3.85
2023-03-31T00:29:06.388Z,3.20
2023-03-31T00:34:13.520Z,3.47
2023-03-31T00:39:31.839Z,4.10
2023-03-31T00:44:42.424Z,3.70
2023-03-31T00:49:47.712Z,3.42
2023-03-31T00:54:53.308Z,3.72
2023-03-31T01:00:20.461Z,3.38
2023-03-31T01:05:30.546Z,2.33
2023-03-31T01:10:42.224Z,2.45
2023-03-31T01:16:01.887Z,3.65
2023-03-31T01:21:34.840Z,2.97
2023-03-31T01:26:59.055Z,3.33
2023-03-31T01:32:23.678Z,4.03
2023-03-31T01:37:41.399Z,3.15
2023-03-31T01:43:03.856Z,3.05
2023-03-31T01:48:18.512Z,3.08
2023-03-31T01:53:34.604Z,2.67
2023-03-31T01:58:45.907Z,1.83
2023-03-31T02:04:09.319Z,4.55
2023-03-31T02:09:18.704Z,3.20
2023-03-31T02:14:29.717Z,3.80
2023-03-31T02:19:45.402Z,3.10
2023-03-31T02:25:01.304Z,4.03
2023-03-31T02:30:15.044Z,2.65
2023-03-31T02:35:23.362Z,3.58
2023-03-31T02:40:32.632Z,4.30
2023-03-31T02:46:01.820Z,3.67
2023-03-31T02:51:32.046Z,2.92
2023-03-31T02:56:53.209Z,2.92
2023-03-31T03:02:12.345Z,2.78
2023-03-31T03:07:24.330Z,3.17
2023-03-31T03:12:37.448Z,4.47
2023-03-31T03:17:50.265Z,3.90
2023-03-31T03:22:58.528Z,2.30
2023-03-31T03:28:07.399Z,3.03
2023-03-31T03:33:17.365Z,3.15
2023-03-31T03:38:39.430Z,3.08
2023-03-31T03:43:49.692Z,3.13
2023-03-31T03:48:57.073Z,3.58
2023-03-31T03:54:08.020Z,2.10
2023-03-31T03:59:29.895Z,3.00
2023-03-31T04:04:40.151Z,4.40
2023-03-31T04:09:45.010Z,2.55
2023-03-31T04:20:06.069Z,4.90
2023-03-31T04:25:21.262Z,4.00
2023-03-31T04:30:42.708Z,4.70
2023-03-31T04:35:56.898Z,5.05
2023-03-31T04:41:01.926Z,4.50
2023-03-31T04:46:11.215Z,4.35
2023-03-31T04:51:22.571Z,4.78
2023-03-31T04:56:33.818Z,5.72
2023-03-31T05:01:38.901Z,4.07
2023-03-31T05:06:54.712Z,4.07
2023-03-31T05:11:59.831Z,4.68
2023-03-31T05:17:05.237Z,2.97
2023-03-31T05:22:19.766Z,3.50
2023-03-31T05:27:38.650Z,3.50
2023-03-31T05:32:45.227Z,4.88
2023-03-31T05:37:53.140Z,1.80
2023-03-31T05:43:08.660Z,4.28
2023-03-31T05:48:31.366Z,2.90
2023-03-31T05:53:40.199Z,4.47
2023-03-31T05:58:48.769Z,4.20
2023-03-31T06:03:56.151Z,4.35
2023-03-31T06:09:07.944Z,2.38
2023-03-31T06:19:45.628Z,3.90
2023-03-31T06:24:59.688Z,6.40
2023-03-31T06:30:13.923Z,3.97
2023-03-31T06:35:31.433Z,4.65
2023-03-31T06:40:41.956Z,3.95
2023-03-31T06:45:52.456Z,3.05
2023-03-31T06:51:04.882Z,4.57
2023-03-31T06:56:12.529Z,3.38
2023-03-31T07:01:19.294Z,4.10
2023-03-31T07:06:27.394Z,4.90
2023-03-31T07:11:37.210Z,2.13
2023-03-31T07:16:45.494Z,3.92
2023-03-31T07:22:03.298Z,5.47
2023-03-31T07:27:14.531Z,2.25
2023-03-31T07:32:24.792Z,5.05
2023-03-31T07:43:37.622Z,5.25
2023-03-31T07:48:58.340Z,5.78
2023-03-31T07:59:23.787Z,2.80
2023-03-31T08:04:38.627Z,2.85
2023-03-31T08:09:49.682Z,6.07
2023-03-31T08:15:03.251Z,1.70
2023-03-31T08:25:16.936Z,2.83
2023-03-31T08:30:37.619Z,4.40
2023-03-31T08:35:56.132Z,3.70
2023-03-31T08:41:08.819Z,3.60
2023-03-31T08:46:26.282Z,1.60
2023-03-31T08:51:36.477Z,3.50
2023-03-31T08:56:45.418Z,4.65
2023-03-31T09:01:56.597Z,4.20
2023-03-31T09:07:10.985Z,3.15
2023-03-31T09:12:18.857Z,4.15
2023-03-31T09:17:35.611Z,3.10
2023-03-31T09:22:44.791Z,2.80
2023-03-31T09:27:59.172Z,2.70
2023-03-31T09:33:13.295Z,2.40
2023-03-31T09:38:35.283Z,2.80
2023-03-31T09:43:50.002Z,2.22
2023-03-31T09:49:11.466Z,3.03
2023-03-31T09:54:26.803Z,2.22
2023-03-31T09:59:39.191Z,2.78
2023-03-31T10:09:57.707Z,2.13
2023-03-31T10:15:15.299Z,2.50
2023-03-31T10:20:21.482Z,2.30
2023-03-31T11:12:06.636Z,2.35
2023-03-31T11:17:17.510Z,2.45
2023-03-31T11:22:38.626Z,2.60
2023-03-31T11:28:01.206Z,2.20
2023-03-31T11:38:31.839Z,1.25
2023-03-31T11:43:53.869Z,0.98
2023-03-31T11:49:04.640Z,1.20
2023-03-31T11:54:14.200Z,1.90
2023-03-31T11:59:31.668Z,1.40
2023-03-31T12:04:56.525Z,1.30
2023-03-31T12:10:13.334Z,0.73
2023-03-31T12:15:22.460Z,1.50
2023-03-31T12:20:33.552Z,1.00
2023-03-31T12:25:48.697Z,1.25
2023-03-31T12:30:57.730Z,1.30
2023-03-31T12:36:15.823Z,1.23
2023-03-31T12:41:23.754Z,1.13
2023-03-31T12:46:51.978Z,1.10
2023-03-31T12:52:07.445Z,1.30
2023-03-31T12:57:17.570Z,1.52
2023-03-31T13:07:52.087Z,1.13
2023-03-31T13:13:05.783Z,1.17
2023-03-31T13:18:26.024Z,1.08
2023-03-31T13:23:34.455Z,1.20
2023-03-31T13:28:42.735Z,0.90
2023-03-31T13:33:57.289Z,1.38
2023-03-31T13:39:12.983Z,0.90
2023-03-31T13:44:33.409Z,1.15
2023-03-31T13:49:59.536Z,0.73
2023-03-31T13:55:15.030Z,0.73
2023-03-31T14:00:36.132Z,0.90
2023-03-31T14:05:45.292Z,0.90
2023-03-31T14:10:51.347Z,0.75
2023-03-31T14:16:11.773Z,0.95
2023-03-31T14:21:21.533Z,0.50
2023-03-31T14:26:39.223Z,0.70
2023-03-31T14:31:55.866Z,0.30
2023-03-31T14:37:04.085Z,0.45
2023-03-31T14:42:17.535Z,0.85
2023-03-31T14:47:40.181Z,1.10
2023-03-31T14:53:02.117Z,0.90
2023-03-31T14:58:32.025Z,0.52
2023-03-31T15:03:39.089Z,0.55
2023-03-31T15:08:48.226Z,0.73
2023-03-31T15:14:05.681Z,0.30
2023-03-31T15:19:13.574Z,0.88
2023-03-31T15:24:30.770Z,0.60
2023-03-31T15:29:47.816Z,0.80
2023-03-31T15:35:02.520Z,0.50
2023-03-31T15:45:55.819Z,0.70
2023-03-31T15:51:02.815Z,0.75
2023-03-31T15:56:05.778Z,0.75
2023-03-31T16:01:09.899Z,1.13
2023-03-31T16:06:16.956Z,0.85
2023-03-31T16:11:21.071Z,0.65
2023-03-31T16:16:29.582Z,0.68
2023-03-31T16:21:36.326Z,0.70
2023-03-31T16:26:39.144Z,0.70
2023-03-31T16:31:43.288Z,0.98
2023-03-31T16:36:49.421Z,0.80
2023-03-31T16:41:52.208Z,0.68
2023-03-31T16:46:56.328Z,1.10
2023-03-31T16:51:58.914Z,0.90
2023-03-31T16:57:02.251Z,1.50
2023-03-31T17:02:07.440Z,0.50
2023-03-31T17:07:20.457Z,0.35
2023-03-31T17:18:39.423Z,0.20
2023-03-31T17:23:42.753Z,0.40
2023-03-31T17:28:49.456Z,0.60
2023-03-31T17:33:53.980Z,0.40
2023-03-31T17:38:56.964Z,0.40
2023-03-31T17:43:59.915Z,0.40
2023-03-31T17:49:04.286Z,0.40
2023-03-31T17:54:07.266Z,0.43
2023-03-31T17:59:10.801Z,0.68
2023-03-31T18:04:15.284Z,0.40
2023-03-31T18:14:20.800Z,0.38
2023-03-31T18:19:25.602Z,0.60
2023-03-31T18:24:28.262Z,0.75
2023-03-31T18:29:31.108Z,0.57
2023-03-31T18:34:36.737Z,0.60
2023-03-31T18:39:39.452Z,0.90
2023-03-31T18:44:42.247Z,0.50
2023-03-31T18:49:47.445Z,0.50
2023-03-31T18:55:00.036Z,0.57
2023-03-31T19:00:03.950Z,0.47
2023-03-31T19:05:09.017Z,0.05
2023-03-31T19:10:12.731Z,0.50
2023-03-31T19:15:15.457Z,0.30
2023-03-31T19:20:19.895Z,0.43
2023-03-31T19:25:24.337Z,0.65
2023-03-31T19:30:29.263Z,0.55
2023-03-31T19:35:34.451Z,0.75
2023-03-31T19:40:37.733Z,0.50
2023-03-31T19:45:42.435Z,0.68
2023-03-31T19:50:48.626Z,0.22
2023-03-31T19:55:58.090Z,0.45
2023-03-31T20:01:01.093Z,0.50
2023-03-31T20:06:07.100Z,0.32
2023-03-31T20:11:14.025Z,1.05
2023-03-31T20:16:17.682Z,0.35
2023-03-31T20:21:22.291Z,0.95
2023-03-31T20:26:26.193Z,0.35
2023-03-31T20:31:29.859Z,0.60
2023-03-31T20:36:34.822Z,0.80
2023-03-31T20:42:13.197Z,0.85
2023-03-31T20:47:15.996Z,0.68
2023-03-31T20:52:20.129Z,0.88
2023-03-31T20:57:24.254Z,0.50
2023-03-31T21:02:28.006Z,0.88
2023-03-31T21:07:32.387Z,0.88
2023-03-31T21:12:34.860Z,0.60
2023-03-31T21:17:47.288Z,0.85
2023-03-31T21:22:51.404Z,0.80
2023-03-31T21:27:54.541Z,1.10
2023-03-31T21:32:57.947Z,0.60
2023-03-31T21:38:03.249Z,0.50
2023-03-31T21:43:07.188Z,0.80
2023-03-31T21:48:10.583Z,1.13
2023-03-31T21:58:19.361Z,0.52
2023-03-31T22:03:27.558Z,0.30
2023-03-31T22:08:31.413Z,0.38
2023-03-31T22:13:39.979Z,0.40
2023-03-31T22:18:42.828Z,0.40
2023-03-31T22:23:46.325Z,0.82
2023-03-31T22:28:50.448Z,0.50
2023-03-31T22:38:56.297Z,0.20
2023-03-31T22:44:00.495Z,0.65
2023-03-31T22:49:13.041Z,0.45
2023-03-31T22:54:16.099Z,0.60
2023-03-31T22:59:19.976Z,0.55
2023-03-31T23:04:23.681Z,0.40
2023-03-31T23:09:27.005Z,0.30
2023-03-31T23:14:32.018Z,0.50
2023-03-31T23:19:37.838Z,0.20
2023-03-31T23:24:40.610Z,0.30
2023-03-31T23:29:44.487Z,0.50
2023-03-31T23:34:47.103Z,0.30
2023-03-31T23:39:49.677Z,0.28
2023-03-31T23:44:54.292Z,0.32
2023-03-31T23:50:07.236Z,0.22
2023-03-31T23:55:10.185Z,0.20
